Time;durP1;ratioP1;P1;durP2;ratioP2;P2;SDS_P1;SDS_P2;PMS_P1;PMS_P2;Temp;Humidity;BMP_temperature;BMP_pressure;BME280_temperature;BME280_humidity;BME280_pressure;Samples;Min_cycle;Max_cycle;Signal;HPM_P1;HPM_P2
2021/03/30 00:01:59;;;;;;;1.20;1.10;;;7.20;99.90;;;;;;5044589;28;20214;-79
2021/03/30 00:04:25;;;;;;;1.40;1.30;;;7.20;99.90;;;;;;5043991;28;20264;-81
2021/03/30 00:06:51;;;;;;;1.67;1.10;;;7.20;99.90;;;;;;5043261;28;20210;-81
2021/03/30 00:09:17;;;;;;;1.20;1.10;;;7.20;99.90;;;;;;5045076;28;20170;-80
2021/03/30 00:11:42;;;;;;;1.40;1.23;;;7.20;99.90;;;;;;5045426;28;20178;-80
2021/03/30 00:14:09;;;;;;;1.90;1.10;;;7.20;99.90;;;;;;5048470;28;20239;-80
2021/03/30 00:16:35;;;;;;;1.57;1.27;;;7.40;99.90;;;;;;5046615;28;20755;-81
2021/03/30 00:19:00;;;;;;;1.13;1.03;;;7.60;99.90;;;;;;5046538;28;20269;-79
2021/03/30 00:21:26;;;;;;;1.07;1.00;;;7.60;99.90;;;;;;5047158;28;20194;-80
2021/03/30 00:23:52;;;;;;;1.60;1.30;;;7.50;99.90;;;;;;5047131;28;20272;-79
2021/03/30 00:26:18;;;;;;;1.63;1.53;;;7.50;99.90;;;;;;5047400;28;20198;-79
2021/03/30 00:28:44;;;;;;;1.73;1.27;;;7.50;99.90;;;;;;5044940;28;20185;-80
2021/03/30 00:31:10;;;;;;;3.57;1.50;;;7.40;99.90;;;;;;5047369;28;20196;-80
2021/03/30 00:33:35;;;;;;;2.63;2.00;;;7.30;99.90;;;;;;5043710;28;20178;-80
2021/03/30 00:36:01;;;;;;;1.30;1.07;;;7.20;99.90;;;;;;5048097;28;20194;-82
2021/03/30 00:38:26;;;;;;;1.20;1.10;;;7.20;99.90;;;;;;5047164;28;20269;-81
2021/03/30 00:40:52;;;;;;;1.60;1.50;;;7.30;99.90;;;;;;5048500;28;20214;-79
2021/03/30 00:43:19;;;;;;;2.23;1.50;;;7.30;99.90;;;;;;5047202;28;20195;-80
2021/03/30 00:45:44;;;;;;;1.53;1.43;;;7.10;99.90;;;;;;5046371;28;20463;-81
2021/03/30 00:48:21;;;;;;;1.67;1.47;;;7.10;99.90;;;;;;5047459;28;20801;-80
2021/03/30 00:50:46;;;;;;;1.50;1.07;;;7.00;99.90;;;;;;5046751;28;20231;-79
2021/03/30 00:53:12;;;;;;;1.60;1.50;;;7.00;99.90;;;;;;5047321;28;20974;-78
2021/03/30 00:55:38;;;;;;;1.80;1.23;;;6.90;99.90;;;;;;5046674;28;20286;-79
2021/03/30 00:58:03;;;;;;;1.30;1.17;;;6.90;99.90;;;;;;5048033;28;20224;-79
2021/03/30 01:00:29;;;;;;;1.47;1.37;;;7.10;99.90;;;;;;5046716;28;20281;-80
2021/03/30 01:02:55;;;;;;;2.00;1.47;;;7.00;99.90;;;;;;5046603;28;20178;-78
2021/03/30 01:05:20;;;;;;;1.70;1.37;;;7.00;99.90;;;;;;5046316;28;20552;-80
2021/03/30 01:08:05;;;;;;;2.13;1.37;;;6.90;99.90;;;;;;5047849;28;20198;-80
2021/03/30 01:10:55;;;;;;;2.03;1.20;;;6.80;99.90;;;;;;5046801;28;20175;-80
2021/03/30 01:13:34;;;;;;;2.93;1.27;;;6.60;99.90;;;;;;5047318;28;20209;-80
2021/03/30 01:16:10;;;;;;;2.10;1.47;;;6.50;99.90;;;;;;5047889;28;20629;-78
2021/03/30 01:19:03;;;;;;;4.13;1.57;;;6.50;99.90;;;;;;5045663;28;20181;-79
2021/03/30 01:21:46;;;;;;;1.87;1.23;;;6.60;99.90;;;;;;5047711;28;20225;-79
2021/03/30 01:24:20;;;;;;;1.87;1.00;;;6.60;99.90;;;;;;5046778;28;20223;-79
2021/03/30 01:26:48;;;;;;;1.80;1.33;;;6.60;99.90;;;;;;5046514;28;20204;-79
2021/03/30 01:29:38;;;;;;;1.43;1.33;;;6.60;99.90;;;;;;5045903;28;20231;-80
2021/03/30 01:32:11;;;;;;;1.73;1.40;;;6.70;99.90;;;;;;5047636;28;20220;-80
2021/03/30 01:34:39;;;;;;;1.97;1.37;;;6.70;99.90;;;;;;5047187;28;20189;-80
2021/03/30 01:37:06;;;;;;;2.00;1.73;;;6.60;99.90;;;;;;5046135;28;20217;-79
2021/03/30 01:39:35;;;;;;;2.00;1.60;;;6.50;99.90;;;;;;5045876;28;20263;-79
2021/03/30 01:42:01;;;;;;;1.47;1.37;;;6.50;99.90;;;;;;5047438;28;20549;-79
2021/03/30 01:44:28;;;;;;;1.33;1.23;;;6.50;99.90;;;;;;5045521;28;20200;-78
2021/03/30 01:46:55;;;;;;;1.70;1.60;;;6.60;99.90;;;;;;5047645;28;20217;-81
2021/03/30 01:49:25;;;;;;;1.83;1.30;;;6.50;99.90;;;;;;5045836;28;20190;-80
2021/03/30 01:51:51;;;;;;;1.57;1.30;;;6.50;99.90;;;;;;5037943;28;20192;-79
2021/03/30 01:54:20;;;;;;;3.40;1.70;;;6.40;99.90;;;;;;5045027;28;20193;-80
2021/03/30 01:56:46;;;;;;;1.73;1.63;;;6.40;99.90;;;;;;5045367;28;20572;-79
2021/03/30 01:59:16;;;;;;;1.97;1.33;;;6.30;99.90;;;;;;5044965;28;20185;-79
2021/03/30 02:01:45;;;;;;;3.10;2.10;;;6.30;99.90;;;;;;5045162;28;20194;-80
2021/03/30 02:04:12;;;;;;;1.53;1.30;;;6.30;99.90;;;;;;5046370;28;20182;-79
2021/03/30 02:06:40;;;;;;;5.30;2.77;;;6.20;99.90;;;;;;5046595;28;20227;-79
2021/03/30 02:09:11;;;;;;;2.97;1.70;;;6.20;99.90;;;;;;5045557;28;20179;-80
2021/03/30 02:12:12;;;;;;;1.50;1.10;;;6.20;99.90;;;;;;5063117;28;20182;-80
2021/03/30 02:14:29;;;;;;;2.53;1.80;;;6.20;99.90;;;;;;5046612;28;20197;-79
2021/03/30 02:17:02;;;;;;;1.90;1.43;;;6.20;99.90;;;;;;5046781;28;20202;-81
2021/03/30 02:19:31;;;;;;;2.67;1.60;;;6.20;99.90;;;;;;5062539;28;20346;-78
2021/03/30 02:22:08;;;;;;;2.23;1.70;;;6.10;99.90;;;;;;5046461;28;20215;-79
2021/03/30 02:24:35;;;;;;;2.77;2.00;;;6.10;99.90;;;;;;5046753;28;20316;-82
2021/03/30 02:27:06;;;;;;;2.27;1.60;;;6.00;99.90;;;;;;5046319;28;21227;-78
2021/03/30 02:29:34;;;;;;;1.90;1.50;;;6.10;99.90;;;;;;5046695;28;20174;-81
2021/03/30 02:32:04;;;;;;;2.73;2.00;;;6.10;99.90;;;;;;5046647;28;20186;-82
2021/03/30 02:34:33;;;;;;;2.20;1.60;;;6.10;99.90;;;;;;5045404;28;20174;-82
2021/03/30 02:36:58;;;;;;;1.97;1.50;;;6.00;99.90;;;;;;5046138;28;20649;-81
2021/03/30 02:39:25;;;;;;;1.53;1.40;;;6.00;99.90;;;;;;5046685;28;20190;-81
2021/03/30 02:41:53;;;;;;;1.77;1.67;;;6.00;99.90;;;;;;5046090;28;20268;-79
2021/03/30 02:44:20;;;;;;;1.53;1.27;;;6.00;99.90;;;;;;5045289;28;20209;-80
2021/03/30 02:46:49;;;;;;;5.90;1.80;;;6.00;99.90;;;;;;5046084;28;20214;-81
2021/03/30 02:49:17;;;;;;;2.33;1.63;;;5.90;99.90;;;;;;5046013;28;20185;-80
2021/03/30 02:51:48;;;;;;;2.17;1.40;;;5.90;99.90;;;;;;5045914;28;20212;-81
2021/03/30 02:54:16;;;;;;;2.93;1.77;;;5.90;99.90;;;;;;5045640;28;20213;-80
2021/03/30 02:56:42;;;;;;;2.00;1.53;;;5.90;99.90;;;;;;5038223;28;20213;-79
2021/03/30 02:59:09;;;;;;;2.27;1.67;;;5.80;99.90;;;;;;5045531;28;20256;-80
2021/03/30 03:01:36;;;;;;;3.87;2.17;;;5.80;99.90;;;;;;5045928;28;20210;-82
2021/03/30 03:04:04;;;;;;;1.70;1.40;;;5.70;99.90;;;;;;5045792;28;20186;-80
2021/03/30 03:06:31;;;;;;;2.53;2.07;;;5.80;99.90;;;;;;5045357;28;20278;-80
2021/03/30 03:08:57;;;;;;;2.40;2.20;;;5.70;99.90;;;;;;5045969;28;20235;-79
2021/03/30 03:11:24;;;;;;;3.53;1.97;;;5.70;99.90;;;;;;5046040;28;20178;-81
2021/03/30 03:13:51;;;;;;;1.50;1.40;;;5.70;99.90;;;;;;5062252;28;20635;-79
2021/03/30 03:16:22;;;;;;;1.87;1.77;;;5.70;99.90;;;;;;5045600;28;20217;-80
2021/03/30 03:18:48;;;;;;;4.43;1.70;;;5.70;99.90;;;;;;5045447;28;20277;-80
2021/03/30 03:21:16;;;;;;;1.77;1.43;;;5.70;99.90;;;;;;5046896;28;20210;-79
2021/03/30 03:23:42;;;;;;;2.80;1.80;;;5.70;99.90;;;;;;5045859;28;20228;-80
2021/03/30 03:26:17;;;;;;;4.60;2.77;;;5.60;99.90;;;;;;5045972;28;20213;-81
2021/03/30 03:28:44;;;;;;;1.43;1.23;;;5.80;99.90;;;;;;5045601;28;20170;-80
2021/03/30 03:31:15;;;;;;;2.07;1.67;;;5.90;99.90;;;;;;5045471;28;20272;-80
2021/03/30 03:33:41;;;;;;;2.03;1.73;;;5.80;99.90;;;;;;5042458;28;20197;-80
2021/03/30 03:36:13;;;;;;;3.00;1.73;;;5.80;99.90;;;;;;5047695;28;20230;-81
2021/03/30 03:38:43;;;;;;;3.53;2.13;;;5.90;99.90;;;;;;5045900;28;20182;-81
2021/03/30 03:41:16;;;;;;;3.07;2.00;;;5.80;99.90;;;;;;5036793;28;20209;-81
2021/03/30 03:43:44;;;;;;;3.40;2.50;;;5.80;99.90;;;;;;5044535;28;20269;-80
2021/03/30 03:46:14;;;;;;;1.63;1.30;;;5.80;99.90;;;;;;5047267;28;20206;-81
2021/03/30 03:48:40;;;;;;;8.70;2.73;;;5.90;99.90;;;;;;5047630;28;20170;-79
2021/03/30 03:51:07;;;;;;;2.83;1.77;;;5.90;99.90;;;;;;5049821;28;20213;-80
2021/03/30 03:53:36;;;;;;;3.97;2.57;;;5.70;99.90;;;;;;5050333;28;20749;-82
2021/03/30 03:56:02;;;;;;;2.20;1.50;;;5.80;99.90;;;;;;5048989;28;21231;-81
2021/03/30 03:58:33;;;;;;;2.37;1.97;;;5.60;99.90;;;;;;5048340;28;20542;-79
2021/03/30 04:01:01;;;;;;;2.93;1.90;;;5.60;99.90;;;;;;5041331;28;20263;-80
2021/03/30 04:03:28;;;;;;;2.53;1.90;;;5.50;99.90;;;;;;5049093;28;20186;-79
2021/03/30 04:06:10;;;;;;;2.37;2.00;;;5.50;99.90;;;;;;5048993;28;20280;-80
2021/03/30 04:08:42;;;;;;;2.17;1.77;;;5.40;99.90;;;;;;5049793;28;20239;-81
2021/03/30 04:11:08;;;;;;;2.40;1.90;;;5.40;99.90;;;;;;5051077;28;20652;-82
2021/03/30 04:13:38;;;;;;;2.47;1.97;;;5.40;99.90;;;;;;5047848;28;20549;-81
2021/03/30 04:16:05;;;;;;;2.37;1.97;;;5.40;99.90;;;;;;5049181;28;20210;-79
2021/03/30 04:18:32;;;;;;;3.10;1.80;;;5.40;99.90;;;;;;5049806;28;20687;-81
2021/03/30 04:21:05;;;;;;;2.03;1.63;;;5.40;99.90;;;;;;5049136;28;20210;-79
2021/03/30 04:23:32;;;;;;;3.17;1.83;;;5.40;99.90;;;;;;5048498;28;20178;-79
2021/03/30 04:25:58;;;;;;;4.80;2.03;;;5.50;99.90;;;;;;5048854;28;20182;-82
2021/03/30 04:28:23;;;;;;;3.17;2.00;;;5.40;99.90;;;;;;5048463;28;20801;-81
2021/03/30 04:30:49;;;;;;;2.53;2.20;;;5.40;99.90;;;;;;5048728;28;20193;-79
2021/03/30 04:33:15;;;;;;;2.20;1.60;;;5.40;99.90;;;;;;5050271;28;20224;-82
2021/03/30 04:35:41;;;;;;;2.37;1.80;;;5.30;99.90;;;;;;5049986;28;20186;-78
2021/03/30 04:38:06;;;;;;;2.40;2.00;;;5.40;99.90;;;;;;5049603;28;20263;-79
2021/03/30 04:40:32;;;;;;;2.70;1.90;;;5.70;99.90;;;;;;5048795;28;20214;-80
2021/03/30 04:42:58;;;;;;;5.17;2.27;;;5.80;99.90;;;;;;5048159;28;20232;-80
2021/03/30 04:45:23;;;;;;;3.80;2.43;;;5.80;99.90;;;;;;5048919;28;20197;-80
2021/03/30 04:47:49;;;;;;;3.53;1.80;;;5.70;99.90;;;;;;5048625;28;20217;-80
2021/03/30 04:50:15;;;;;;;2.67;2.00;;;5.60;99.90;;;;;;5048434;28;20239;-78
2021/03/30 04:52:41;;;;;;;2.80;2.30;;;5.70;99.90;;;;;;5048845;28;20174;-81
2021/03/30 04:55:07;;;;;;;2.60;2.40;;;5.60;99.90;;;;;;5050527;28;20563;-80
2021/03/30 04:57:33;;;;;;;3.63;2.20;;;5.70;99.90;;;;;;5049024;28;20206;-79
2021/03/30 04:59:58;;;;;;;2.43;1.90;;;5.70;99.90;;;;;;5048342;28;20186;-82
2021/03/30 05:02:24;;;;;;;2.57;2.37;;;5.70;99.90;;;;;;5045471;28;20193;-82
2021/03/30 05:04:50;;;;;;;2.40;2.03;;;5.70;99.90;;;;;;5047805;28;20190;-79
2021/03/30 05:07:16;;;;;;;2.57;1.87;;;5.70;99.90;;;;;;5048797;28;20198;-79
2021/03/30 05:09:42;;;;;;;5.47;2.07;;;5.70;99.90;;;;;;5047853;28;20183;-81
2021/03/30 05:12:08;;;;;;;2.73;2.37;;;5.80;99.90;;;;;;5048682;28;20201;-80
2021/03/30 05:14:33;;;;;;;2.70;2.00;;;5.80;99.90;;;;;;5047967;28;20182;-82
2021/03/30 05:16:59;;;;;;;2.30;1.90;;;5.80;99.90;;;;;;5050820;28;20214;-81
2021/03/30 05:19:25;;;;;;;4.37;2.60;;;5.70;99.90;;;;;;5047831;28;20277;-80
2021/03/30 05:21:50;;;;;;;2.93;2.63;;;5.70;99.90;;;;;;5048153;28;20213;-79
2021/03/30 05:24:16;;;;;;;3.43;2.23;;;5.70;99.90;;;;;;5047927;28;20542;-79
2021/03/30 05:26:41;;;;;;;4.40;2.63;;;5.70;99.90;;;;;;5047598;28;20200;-81
2021/03/30 05:29:07;;;;;;;2.70;2.40;;;5.70;99.90;;;;;;5048379;28;20179;-81
2021/03/30 05:31:33;;;;;;;2.10;1.73;;;5.90;99.90;;;;;;5048018;28;20190;-80
2021/03/30 05:33:58;;;;;;;3.83;2.33;;;5.90;99.90;;;;;;5047591;28;20217;-79
2021/03/30 05:36:24;;;;;;;4.03;2.20;;;5.90;99.90;;;;;;5048219;28;20710;-82
2021/03/30 05:38:50;;;;;;;3.93;2.40;;;5.90;99.90;;;;;;5046876;28;20190;-81
2021/03/30 05:41:16;;;;;;;2.80;2.27;;;5.90;99.90;;;;;;5046653;28;20531;-80
2021/03/30 05:43:42;;;;;;;2.70;2.37;;;6.00;99.90;;;;;;5047394;28;20189;-79
2021/03/30 05:46:08;;;;;;;3.50;2.70;;;6.10;99.90;;;;;;5047787;28;20699;-79
2021/03/30 05:48:33;;;;;;;3.50;2.13;;;6.20;99.90;;;;;;5048403;28;20181;-79
2021/03/30 05:51:00;;;;;;;3.37;2.27;;;6.30;99.90;;;;;;5046658;28;20190;-80
2021/03/30 05:53:26;;;;;;;2.87;2.23;;;6.40;99.90;;;;;;5047907;28;20251;-80
2021/03/30 05:55:59;;;;;;;3.77;2.20;;;6.50;99.90;;;;;;5045314;28;20588;-79
2021/03/30 05:58:31;;;;;;;5.17;2.47;;;6.60;99.90;;;;;;5046686;28;20254;-81
2021/03/30 06:01:01;;;;;;;3.57;2.90;;;6.70;99.90;;;;;;5045824;28;20229;-80
2021/03/30 06:03:28;;;;;;;3.57;2.40;;;6.80;99.90;;;;;;5046330;28;20194;-80
2021/03/30 06:05:55;;;;;;;3.00;2.40;;;6.80;99.90;;;;;;5045998;28;20181;-81
2021/03/30 06:08:26;;;;;;;3.53;2.63;;;7.00;99.90;;;;;;5044540;28;20174;-79
2021/03/30 06:11:03;;;;;;;5.13;3.00;;;7.00;99.90;;;;;;5045262;28;20193;-79
2021/03/30 06:13:51;;;;;;;4.57;2.57;;;7.10;99.90;;;;;;5045181;28;20251;-79
2021/03/30 06:16:26;;;;;;;5.07;2.80;;;7.20;99.90;;;;;;5045218;28;20202;-79
2021/03/30 06:19:13;;;;;;;3.47;2.40;;;7.30;99.90;;;;;;5044750;28;20181;-80
2021/03/30 06:21:44;;;;;;;2.60;2.40;;;7.40;99.90;;;;;;5047138;28;20205;-81
2021/03/30 06:24:36;;;;;;;3.20;2.30;;;7.50;99.90;;;;;;5045724;28;20415;-80
2021/03/30 06:27:05;;;;;;;4.13;2.87;;;7.70;99.90;;;;;;5045025;28;20301;-81
2021/03/30 06:29:38;;;;;;;4.40;3.27;;;7.80;99.90;;;;;;5047011;28;20268;-79
2021/03/30 06:32:09;;;;;;;4.47;2.97;;;8.00;99.90;;;;;;5048067;28;20282;-82
2021/03/30 06:34:39;;;;;;;9.17;2.70;;;8.10;99.90;;;;;;5045353;28;20281;-79
2021/03/30 06:37:33;;;;;;;4.13;2.53;;;8.20;99.90;;;;;;5037902;28;20226;-80
2021/03/30 06:40:08;;;;;;;4.50;3.10;;;8.40;99.90;;;;;;5047746;28;20244;-81
2021/03/30 06:45:30;;;;;;;4.57;2.70;;;8.90;99.90;;;;;;5044163;28;20190;-75
2021/03/30 06:48:02;;;;;;;4.80;2.43;;;9.20;99.90;;;;;;5044124;28;20233;-77
2021/03/30 06:50:32;;;;;;;3.70;2.30;;;9.50;99.90;;;;;;5043697;28;20265;-76
2021/03/30 06:53:09;;;;;;;4.07;2.47;;;9.70;99.90;;;;;;5044713;28;20236;-76
2021/03/30 06:55:44;;;;;;;4.77;2.77;;;10.00;99.90;;;;;;5035198;28;20377;-75
2021/03/30 06:58:10;;;;;;;4.87;2.77;;;10.20;99.90;;;;;;5029671;28;20197;-75
2021/03/30 07:00:37;;;;;;;3.90;2.63;;;10.50;99.90;;;;;;5040996;28;20202;-75
2021/03/30 07:03:04;;;;;;;5.57;3.20;;;10.70;99.90;;;;;;5041542;28;20184;-77
2021/03/30 07:05:40;;;;;;;4.23;3.00;;;10.90;99.90;;;;;;5044529;28;20210;-75
2021/03/30 07:08:15;;;;;;;4.77;3.03;;;11.20;99.90;;;;;;5044570;28;20212;-78
2021/03/30 07:10:43;;;;;;;4.53;3.30;;;11.40;99.90;;;;;;5045357;28;20186;-76
2021/03/30 07:13:10;;;;;;;4.27;3.10;;;11.60;99.90;;;;;;5042707;28;20190;-76
2021/03/30 07:15:36;;;;;;;4.77;3.50;;;11.70;99.90;;;;;;5042561;28;20179;-74
2021/03/30 07:18:24;;;;;;;5.13;3.40;;;12.00;99.90;;;;;;5043972;28;20259;-76
2021/03/30 07:21:13;;;;;;;4.87;2.73;;;12.20;99.90;;;;;;5043026;28;20232;-79
2021/03/30 07:23:44;;;;;;;5.07;3.13;;;12.40;99.90;;;;;;5043195;28;20240;-76
2021/03/30 07:26:18;;;;;;;4.67;2.57;;;12.60;99.90;;;;;;5044366;28;20206;-77
2021/03/30 07:28:48;;;;;;;4.97;3.10;;;12.80;99.90;;;;;;5044488;28;20652;-78
2021/03/30 07:31:22;;;;;;;5.70;3.37;;;12.90;99.90;;;;;;5044321;28;20174;-75
2021/03/30 07:33:58;;;;;;;5.55;3.38;;;13.00;99.90;;;;;;5044634;28;20571;-78
2021/03/30 07:36:27;;;;;;;4.80;3.40;;;13.20;99.90;;;;;;5044133;28;20208;-74
2021/03/30 07:38:58;;;;;;;4.53;2.90;;;13.40;99.90;;;;;;5042683;28;20213;-74
2021/03/30 07:41:25;;;;;;;8.23;3.65;;;13.60;99.90;;;;;;5043666;28;20675;-78
2021/03/30 07:43:51;;;;;;;6.50;3.80;;;13.70;99.90;;;;;;5042311;28;20186;-76
2021/03/30 07:46:20;;;;;;;6.30;3.45;;;13.90;99.90;;;;;;5038774;28;20237;-76
2021/03/30 07:48:47;;;;;;;6.00;3.08;;;14.00;99.90;;;;;;5042672;28;20293;-78
2021/03/30 07:51:19;;;;;;;5.32;3.15;;;14.10;99.90;;;;;;5044475;28;20328;-75
2021/03/30 07:53:54;;;;;;;5.43;3.92;;;14.20;99.90;;;;;;5042340;28;20190;-75
2021/03/30 07:56:25;;;;;;;6.15;3.60;;;14.40;99.90;;;;;;5043611;28;20241;-77
2021/03/30 07:58:53;;;;;;;7.03;4.10;;;14.60;99.90;;;;;;5044214;28;20201;-77
2021/03/30 08:01:23;;;;;;;7.30;3.90;;;14.80;99.90;;;;;;5043567;28;20221;-75
2021/03/30 08:03:52;;;;;;;6.07;3.28;;;14.90;99.90;;;;;;5044353;28;20248;-77
2021/03/30 08:06:24;;;;;;;6.05;3.97;;;15.00;99.90;;;;;;5043389;28;20202;-78
2021/03/30 08:08:58;;;;;;;6.97;4.00;;;15.00;99.90;;;;;;5042495;28;20256;-78
2021/03/30 08:11:49;;;;;;;7.38;4.00;;;15.20;99.90;;;;;;5043760;28;20255;-76
2021/03/30 08:14:26;;;;;;;6.82;4.15;;;15.40;99.90;;;;;;5043292;28;20248;-77
2021/03/30 08:16:54;;;;;;;6.43;3.22;;;15.40;99.90;;;;;;5042931;28;20234;-76
2021/03/30 08:19:23;;;;;;;8.15;4.28;;;15.60;99.90;;;;;;5041956;28;20178;-76
2021/03/30 08:22:02;;;;;;;8.13;4.32;;;15.70;99.90;;;;;;5043469;28;20295;-75
2021/03/30 08:24:46;;;;;;;8.07;4.63;;;15.70;99.90;;;;;;5043178;28;20644;-75
2021/03/30 08:27:35;;;;;;;5.88;3.83;;;15.70;99.90;;;;;;5043369;28;20640;-75
2021/03/30 08:30:19;;;;;;;6.65;3.92;;;15.90;99.90;;;;;;5041225;28;20269;-75
2021/03/30 08:32:47;;;;;;;6.75;3.72;;;16.00;99.90;;;;;;5043856;28;20682;-77
2021/03/30 08:35:39;;;;;;;6.57;4.07;;;16.00;99.90;;;;;;5044962;28;20186;-76
2021/03/30 08:38:05;;;;;;;7.25;4.32;;;16.00;99.90;;;;;;5046996;28;20214;-78
2021/03/30 08:40:34;;;;;;;7.32;3.92;;;16.20;99.90;;;;;;5046072;28;20261;-77
2021/03/30 08:43:21;;;;;;;6.63;3.58;;;16.10;99.90;;;;;;5047253;28;20261;-77
2021/03/30 08:46:11;;;;;;;8.63;4.05;;;16.20;99.90;;;;;;5046497;28;20186;-77
2021/03/30 08:48:51;;;;;;;6.45;3.90;;;16.30;99.90;;;;;;5047066;28;20262;-78
2021/03/30 08:51:18;;;;;;;5.57;3.35;;;16.40;99.90;;;;;;5045630;28;20178;-77
2021/03/30 08:53:45;;;;;;;9.48;4.32;;;16.50;99.90;;;;;;5047047;28;20189;-78
2021/03/30 08:56:12;;;;;;;5.78;3.60;;;16.70;99.90;;;;;;5045217;28;20232;-78
2021/03/30 08:58:48;;;;;;;6.25;3.40;;;16.80;99.80;;;;;;5044916;28;20833;-77
2021/03/30 09:01:14;;;;;;;7.95;4.40;;;16.80;99.20;;;;;;5045075;28;20706;-77
2021/03/30 09:03:41;;;;;;;6.10;3.58;;;16.90;98.80;;;;;;5046386;28;20684;-77
2021/03/30 09:06:31;;;;;;;6.82;3.22;;;16.90;98.40;;;;;;5046313;28;21109;-77
2021/03/30 09:08:57;;;;;;;5.43;3.42;;;17.00;99.00;;;;;;5046516;28;20174;-78
2021/03/30 09:11:25;;;;;;;8.32;4.32;;;17.10;98.50;;;;;;5045652;28;20193;-77
2021/03/30 09:14:00;;;;;;;8.63;4.43;;;17.20;99.20;;;;;;5045200;28;20220;-78
2021/03/30 09:16:27;;;;;;;8.50;4.05;;;17.20;98.90;;;;;;5045516;28;21026;-78
2021/03/30 09:19:13;;;;;;;8.55;3.78;;;17.40;98.00;;;;;;5046635;28;20701;-76
2021/03/30 09:21:40;;;;;;;6.38;2.97;;;17.50;97.50;;;;;;5046251;28;20233;-77
2021/03/30 09:24:12;;;;;;;5.35;3.10;;;17.70;97.90;;;;;;5046125;28;20262;-77
2021/03/30 09:26:41;;;;;;;5.72;3.50;;;17.80;98.50;;;;;;5045298;28;20198;-80
2021/03/30 09:29:08;;;;;;;5.32;3.20;;;17.90;97.70;;;;;;5044744;28;20182;-78
2021/03/30 09:31:34;;;;;;;6.38;3.80;;;18.00;97.00;;;;;;5045762;28;20952;-76
2021/03/30 09:34:00;;;;;;;6.50;4.35;;;18.00;96.80;;;;;;5046075;28;20186;-77
2021/03/30 09:36:26;;;;;;;6.63;3.58;;;18.10;96.60;;;;;;5045091;28;20202;-78
2021/03/30 09:38:58;;;;;;;7.20;3.83;;;18.20;96.40;;;;;;5044707;28;20284;-77
2021/03/30 09:41:35;;;;;;;9.43;3.97;;;18.30;96.80;;;;;;5045344;28;20309;-77
2021/03/30 09:44:01;;;;;;;6.22;3.10;;;18.40;96.50;;;;;;5044551;28;20315;-77
2021/03/30 09:46:28;;;;;;;6.55;3.38;;;18.40;97.50;;;;;;5045024;28;20818;-77
2021/03/30 09:48:54;;;;;;;6.47;2.85;;;18.50;97.50;;;;;;5045870;28;20189;-78
2021/03/30 09:51:20;;;;;;;10.90;3.97;;;18.80;97.30;;;;;;5044267;28;20194;-79
2021/03/30 09:53:46;;;;;;;7.60;3.78;;;18.80;96.50;;;;;;5044084;28;21001;-79
2021/03/30 09:56:22;;;;;;;5.45;2.80;;;18.60;97.20;;;;;;5045115;28;20214;-76
2021/03/30 09:58:57;;;;;;;4.38;2.67;;;18.50;97.40;;;;;;5043834;28;20174;-77
2021/03/30 10:01:26;;;;;;;5.20;2.65;;;18.60;97.80;;;;;;5045769;28;20233;-77
2021/03/30 10:03:53;;;;;;;5.45;2.42;;;18.60;97.80;;;;;;5046029;28;20185;-77
2021/03/30 10:06:20;;;;;;;3.28;2.40;;;18.80;97.50;;;;;;5044624;28;20205;-76
2021/03/30 10:08:47;;;;;;;4.85;3.00;;;18.90;97.30;;;;;;5043761;28;20182;-77
2021/03/30 10:11:13;;;;;;;4.80;3.28;;;19.10;97.00;;;;;;5045342;28;20293;-77
2021/03/30 10:13:40;;;;;;;6.40;2.90;;;19.20;96.70;;;;;;5045122;28;20858;-76
2021/03/30 10:16:09;;;;;;;6.38;3.38;;;19.10;97.30;;;;;;5042806;28;20214;-78
2021/03/30 10:18:37;;;;;;;7.60;3.50;;;19.20;97.50;;;;;;5043899;28;20182;-76
2021/03/30 10:21:19;;;;;;;6.45;3.03;;;19.50;96.60;;;;;;5044747;28;20202;-77
2021/03/30 10:23:52;;;;;;;7.93;3.22;;;19.40;96.30;;;;;;5044985;28;20262;-77
2021/03/30 10:26:22;;;;;;;9.70;3.30;;;19.30;97.10;;;;;;5044483;28;21044;-76
2021/03/30 10:29:03;;;;;;;6.43;3.28;;;19.50;97.50;;;;;;5044093;28;20182;-78
2021/03/30 10:31:37;;;;;;;7.57;3.72;;;19.60;95.80;;;;;;5045119;28;20262;-78
2021/03/30 10:34:19;;;;;;;6.03;3.38;;;19.60;95.80;;;;;;5044175;28;20197;-79
2021/03/30 10:36:45;;;;;;;6.13;3.72;;;19.50;96.10;;;;;;5044571;28;20206;-76
2021/03/30 10:39:10;;;;;;;3.67;2.13;;;19.50;96.20;;;;;;5045511;28;20243;-76
2021/03/30 10:41:38;;;;;;;6.40;3.00;;;19.60;96.80;;;;;;5043541;28;20232;-78
2021/03/30 10:44:05;;;;;;;5.15;3.03;;;19.60;96.90;;;;;;5044714;28;20190;-76
2021/03/30 10:46:46;;;;;;;7.65;3.03;;;19.60;96.80;;;;;;5042188;28;20699;-79
2021/03/30 10:49:14;;;;;;;6.10;3.92;;;19.60;97.20;;;;;;5044634;28;20208;-77
2021/03/30 10:51:42;;;;;;;8.07;3.55;;;19.80;95.70;;;;;;5044785;28;20214;-76
2021/03/30 10:54:11;;;;;;;6.00;3.17;;;19.80;95.30;;;;;;5044411;28;20569;-77
2021/03/30 10:56:37;;;;;;;7.22;3.72;;;19.80;96.10;;;;;;5042166;28;20820;-77
2021/03/30 10:59:11;;;;;;;6.32;3.97;;;20.00;95.20;;;;;;5043576;28;20186;-77
2021/03/30 11:01:37;;;;;;;5.63;2.67;;;20.00;94.50;;;;;;5044008;28;20293;-79
2021/03/30 11:04:03;;;;;;;6.32;3.13;;;20.00;95.20;;;;;;5043339;28;20188;-76
2021/03/30 11:06:29;;;;;;;5.25;2.83;;;20.10;95.50;;;;;;5044056;28;20202;-76
2021/03/30 11:08:54;;;;;;;5.38;2.92;;;20.10;95.20;;;;;;5045089;28;20189;-78
2021/03/30 11:11:20;;;;;;;7.47;3.63;;;20.10;95.40;;;;;;5043905;28;20192;-79
2021/03/30 11:13:46;;;;;;;5.82;3.30;;;20.30;94.70;;;;;;5044631;28;20186;-77
2021/03/30 11:16:11;;;;;;;6.68;2.92;;;20.20;94.00;;;;;;5042620;28;20204;-76
2021/03/30 11:18:37;;;;;;;5.65;2.78;;;20.30;93.70;;;;;;5044580;28;20236;-77
2021/03/30 11:21:03;;;;;;;5.93;3.30;;;20.30;93.20;;;;;;5043490;28;20210;-76
2021/03/30 11:23:28;;;;;;;5.30;2.90;;;20.30;93.10;;;;;;5042527;28;20179;-77
2021/03/30 11:25:54;;;;;;;7.03;3.42;;;20.40;92.90;;;;;;5042105;28;20182;-77
2021/03/30 11:28:20;;;;;;;6.75;3.17;;;20.40;92.90;;;;;;5044084;28;20238;-76
2021/03/30 11:30:53;;;;;;;8.95;3.53;;;20.40;93.10;;;;;;5043430;28;20201;-77
2021/03/30 11:33:39;;;;;;;7.13;3.47;;;20.50;92.70;;;;;;5043299;28;20181;-78
2021/03/30 11:36:11;;;;;;;7.00;3.30;;;20.50;91.50;;;;;;5040612;28;20568;-76
2021/03/30 11:38:37;;;;;;;7.18;3.88;;;20.50;91.50;;;;;;5042386;28;20664;-77
2021/03/30 11:41:03;;;;;;;6.53;3.55;;;20.60;91.30;;;;;;5042406;28;20285;-77
2021/03/30 11:43:29;;;;;;;8.07;4.10;;;20.60;91.70;;;;;;5041786;28;20201;-76
2021/03/30 11:45:55;;;;;;;6.93;3.10;;;20.50;91.70;;;;;;5043232;28;20312;-75
2021/03/30 11:48:20;;;;;;;7.20;3.58;;;20.40;91.60;;;;;;5044130;28;20544;-77
2021/03/30 11:50:46;;;;;;;5.35;3.13;;;20.50;91.40;;;;;;5041907;28;20182;-77
2021/03/30 11:53:11;;;;;;;5.18;2.65;;;20.60;90.90;;;;;;5043941;28;20659;-77
2021/03/30 11:55:37;;;;;;;6.82;3.40;;;20.80;90.50;;;;;;5043353;28;20182;-75
2021/03/30 11:58:03;;;;;;;6.55;3.60;;;20.90;90.40;;;;;;5042450;28;20213;-78
2021/03/30 12:00:28;;;;;;;7.00;3.35;;;20.90;90.20;;;;;;5043322;28;20617;-76
2021/03/30 12:02:54;;;;;;;5.63;3.00;;;21.00;90.10;;;;;;5042915;28;20828;-76
2021/03/30 12:05:20;;;;;;;7.85;3.67;;;20.90;88.70;;;;;;5043293;28;20183;-78
2021/03/30 12:07:47;;;;;;;8.45;3.83;;;20.90;88.10;;;;;;5044812;28;20209;-77
2021/03/30 12:10:14;;;;;;;6.05;2.97;;;21.00;88.90;;;;;;5046709;28;20181;-77
2021/03/30 12:12:40;;;;;;;7.32;3.25;;;21.10;89.60;;;;;;5046234;28;20182;-76
2021/03/30 12:15:08;;;;;;;5.85;3.80;;;21.20;88.20;;;;;;5047622;28;20174;-78
2021/03/30 12:17:34;;;;;;;4.47;2.90;;;21.30;84.00;;;;;;5047973;28;20202;-77
2021/03/30 12:20:00;;;;;;;7.03;3.05;;;21.30;86.30;;;;;;5047816;28;20711;-76
2021/03/30 12:22:27;;;;;;;5.55;3.20;;;21.30;85.00;;;;;;5047599;28;20209;-76
2021/03/30 12:24:53;;;;;;;5.82;3.08;;;21.40;84.90;;;;;;5047691;28;20179;-77
2021/03/30 12:27:18;;;;;;;5.97;3.15;;;21.50;85.60;;;;;;5045942;28;20198;-77
2021/03/30 12:29:44;;;;;;;5.35;2.88;;;21.40;86.50;;;;;;5046049;28;20232;-76
2021/03/30 12:32:12;;;;;;;6.32;2.50;;;21.40;85.30;;;;;;5045988;28;20197;-77
2021/03/30 12:34:41;;;;;;;4.88;2.45;;;21.40;82.70;;;;;;5046850;28;20175;-76
2021/03/30 12:37:09;;;;;;;3.67;2.05;;;21.50;82.00;;;;;;5045429;28;20206;-77
2021/03/30 12:39:34;;;;;;;6.25;2.80;;;21.50;81.00;;;;;;5047769;28;20257;-76
2021/03/30 12:42:00;;;;;;;6.00;2.80;;;21.30;80.90;;;;;;5045175;28;20297;-76
2021/03/30 12:44:26;;;;;;;7.72;3.50;;;21.50;79.70;;;;;;5046414;28;20182;-78
2021/03/30 12:46:52;;;;;;;4.63;2.75;;;21.40;79.00;;;;;;5046542;28;20272;-76
2021/03/30 12:49:21;;;;;;;4.68;2.90;;;21.40;79.80;;;;;;5045873;28;20813;-76
2021/03/30 12:51:47;;;;;;;4.45;2.72;;;21.50;81.60;;;;;;5046291;28;20186;-78
2021/03/30 12:54:13;;;;;;;6.50;2.90;;;21.60;80.90;;;;;;5046004;28;20549;-76
2021/03/30 12:56:38;;;;;;;5.03;3.00;;;21.60;79.30;;;;;;5045936;28;20202;-77
2021/03/30 12:59:04;;;;;;;5.35;2.75;;;21.50;78.80;;;;;;5047714;28;20182;-76
2021/03/30 13:01:31;;;;;;;5.32;2.83;;;21.60;78.50;;;;;;5047597;28;20208;-78
2021/03/30 13:03:57;;;;;;;5.78;3.38;;;21.60;77.60;;;;;;5049040;28;20291;-77
2021/03/30 13:06:22;;;;;;;6.45;3.50;;;21.60;75.90;;;;;;5048013;28;20853;-79
2021/03/30 13:08:48;;;;;;;6.43;3.47;;;21.70;76.10;;;;;;5047329;28;20186;-77